Time;durP1;ratioP1;P1;durP2;ratioP2;P2;SDS_P1;SDS_P2;PMS_P1;PMS_P2;Temp;Humidity;BMP_temperature;BMP_pressure;BME280_temperature;BME280_humidity;BME280_pressure;Samples;Min_cycle;Max_cycle;Signal;HPM_P1;HPM_P2
2021/11/12 00:14:55;;;;;;;54.00;26.13;;;10.30;75.10;;;;;;5083486;28;20196;-81
2021/11/12 00:17:27;;;;;;;60.50;26.00;;;10.30;75.30;;;;;;5083538;28;20461;-82
2021/11/12 00:19:54;;;;;;;62.03;26.90;;;10.20;75.40;;;;;;5083779;28;20658;-82
2021/11/12 00:22:22;;;;;;;62.42;26.63;;;10.10;75.70;;;;;;5111978;28;20186;-81
2021/11/12 00:24:53;;;;;;;54.20;25.85;;;9.90;75.60;;;;;;5126234;28;20302;-82
2021/11/12 00:27:19;;;;;;;50.97;26.90;;;9.70;75.90;;;;;;5132078;28;20172;-81
2021/11/12 00:29:57;;;;;;;48.40;26.13;;;9.60;76.30;;;;;;5138430;28;20186;-81
2021/11/12 00:35:03;;;;;;;59.97;26.35;;;9.30;77.00;;;;;;5107535;27;20199;-81
2021/11/12 00:40:18;;;;;;;58.95;26.20;;;9.50;77.30;;;;;;5102146;28;20171;-82
2021/11/12 00:45:31;;;;;;;60.47;26.60;;;9.70;75.90;;;;;;5082603;28;20205;-82
2021/11/12 00:48:12;;;;;;;61.97;25.73;;;9.70;75.80;;;;;;5066933;28;20199;-81
2021/11/12 00:55:39;;;;;;;48.17;26.83;;;9.70;77.00;;;;;;5082036;28;20241;-81
2021/11/12 00:58:07;;;;;;;56.25;26.52;;;9.70;76.20;;;;;;5083211;28;20165;-81
2021/11/12 01:00:34;;;;;;;55.88;28.05;;;9.60;76.40;;;;;;5082457;28;20177;-81
2021/11/12 01:03:00;;;;;;;56.30;27.73;;;9.50;76.70;;;;;;5091612;28;20190;-81
2021/11/12 01:05:27;;;;;;;56.47;27.88;;;9.70;76.70;;;;;;5110287;28;20211;-82
2021/11/12 01:07:53;;;;;;;59.58;27.52;;;9.60;76.40;;;;;;5113315;28;20176;-81
2021/11/12 01:10:19;;;;;;;66.57;28.30;;;9.60;76.40;;;;;;5114145;28;20265;-82
2021/11/12 01:12:45;;;;;;;61.10;27.33;;;9.60;76.30;;;;;;5113633;28;20441;-81
2021/11/12 01:15:15;;;;;;;60.50;27.33;;;9.60;76.20;;;;;;5115219;28;20223;-82
2021/11/12 01:17:43;;;;;;;59.72;27.25;;;9.60;76.10;;;;;;5098897;28;20172;-81
2021/11/12 01:20:10;;;;;;;62.33;28.67;;;9.60;76.00;;;;;;5080451;28;20206;-81
2021/11/12 01:22:37;;;;;;;56.03;26.60;;;9.50;76.10;;;;;;5105792;28;20242;-81
2021/11/12 01:25:05;;;;;;;55.42;24.95;;;9.50;76.20;;;;;;5119549;28;20203;-82
2021/11/12 01:27:33;;;;;;;60.67;27.38;;;9.50;76.80;;;;;;5120088;28;20172;-81
2021/11/12 01:29:59;;;;;;;56.08;28.70;;;9.50;75.90;;;;;;5120016;28;20176;-81
2021/11/12 01:32:26;;;;;;;55.70;27.60;;;9.40;75.70;;;;;;5112727;28;20182;-82
2021/11/12 01:34:59;;;;;;;61.15;27.92;;;9.30;75.90;;;;;;5095723;28;20745;-82
2021/11/12 01:37:27;;;;;;;59.13;28.15;;;9.30;76.00;;;;;;5096333;28;20179;-82
2021/11/12 01:39:57;;;;;;;52.38;27.52;;;9.20;76.00;;;;;;5095033;28;20191;-81
2021/11/12 01:42:26;;;;;;;63.50;28.52;;;9.20;76.20;;;;;;5099771;28;20172;-81
2021/11/12 01:45:01;;;;;;;54.78;26.05;;;9.10;76.30;;;;;;5099287;28;20230;-81
2021/11/12 01:50:23;;;;;;;54.13;26.77;;;8.90;76.70;;;;;;5101781;28;20209;-81
2021/11/12 01:52:51;;;;;;;54.15;26.17;;;8.80;76.90;;;;;;5109556;28;20183;-81
2021/11/12 02:00:30;;;;;;;53.38;25.83;;;8.90;76.70;;;;;;5102928;28;20421;-81
2021/11/12 02:02:59;;;;;;;61.08;29.00;;;8.70;76.60;;;;;;5103833;28;20270;-82
2021/11/12 02:05:26;;;;;;;54.72;27.85;;;8.70;77.00;;;;;;5104806;28;20200;-81
2021/11/12 02:07:53;;;;;;;48.55;26.08;;;8.60;77.30;;;;;;5100952;28;20179;-82
2021/11/12 02:10:23;;;;;;;68.65;28.63;;;8.60;77.60;;;;;;5102727;28;20219;-81
2021/11/12 02:15:36;;;;;;;61.08;26.60;;;8.40;77.70;;;;;;5100648;28;20296;-81
2021/11/12 02:18:11;;;;;;;54.90;26.67;;;8.50;78.10;;;;;;5080396;28;20190;-81
2021/11/12 02:20:45;;;;;;;50.33;27.13;;;8.40;77.80;;;;;;5079958;28;20165;-81
2021/11/12 02:23:10;;;;;;;59.83;27.63;;;8.50;77.90;;;;;;5115845;28;20171;-81
2021/11/12 02:25:44;;;;;;;50.93;27.10;;;8.50;77.90;;;;;;5098942;28;20195;-81
2021/11/12 02:28:13;;;;;;;65.88;26.48;;;8.40;78.00;;;;;;5098521;28;20975;-81
2021/11/12 02:30:40;;;;;;;48.60;26.08;;;8.30;78.10;;;;;;5100020;28;20176;-81
2021/11/12 02:33:12;;;;;;;48.70;24.33;;;8.30;78.20;;;;;;5098179;28;20184;-81
2021/11/12 02:35:41;;;;;;;48.88;25.08;;;8.20;78.50;;;;;;5097699;28;20180;-81
2021/11/12 02:38:08;;;;;;;66.05;27.25;;;8.30;78.70;;;;;;5086714;28;20598;-81
2021/11/12 02:40:35;;;;;;;50.67;25.02;;;8.30;78.70;;;;;;5077386;28;20189;-81
2021/11/12 02:43:02;;;;;;;53.17;25.60;;;8.10;78.50;;;;;;5076052;28;20267;-81
2021/11/12 02:45:29;;;;;;;47.83;25.05;;;8.20;78.50;;;;;;5044034;28;20210;-81
2021/11/12 02:47:56;;;;;;;52.40;25.25;;;8.30;78.40;;;;;;5078828;28;20753;-81
2021/11/12 02:50:22;;;;;;;46.75;24.95;;;8.30;78.10;;;;;;5078912;28;20177;-81
2021/11/12 02:52:55;;;;;;;55.75;25.85;;;8.10;78.00;;;;;;5079172;28;20164;-81
2021/11/12 02:55:21;;;;;;;55.10;25.92;;;7.90;78.10;;;;;;5077865;28;20200;-82
2021/11/12 02:57:47;;;;;;;43.80;23.00;;;8.10;78.20;;;;;;5089955;28;20233;-82
2021/11/12 03:00:15;;;;;;;51.17;25.43;;;8.10;78.00;;;;;;5097736;28;20498;-82
2021/11/12 03:02:41;;;;;;;49.90;25.38;;;8.10;78.00;;;;;;5097646;28;20409;-82
2021/11/12 03:05:08;;;;;;;45.78;22.10;;;7.90;78.10;;;;;;5082172;28;20205;-81
2021/11/12 03:07:34;;;;;;;53.80;26.42;;;7.70;78.20;;;;;;5077181;28;20181;-82
2021/11/12 03:10:00;;;;;;;46.67;23.58;;;7.90;78.20;;;;;;5078507;28;20313;-81
2021/11/12 03:12:26;;;;;;;39.47;24.27;;;7.90;77.80;;;;;;5077188;28;20206;-82
2021/11/12 03:14:52;;;;;;;45.97;24.00;;;7.80;77.60;;;;;;5077223;28;20462;-82
2021/11/12 03:17:18;;;;;;;38.90;22.10;;;7.60;77.80;;;;;;5077213;28;20185;-82
2021/11/12 03:19:45;;;;;;;42.85;23.73;;;7.70;78.10;;;;;;5092385;28;20410;-82
2021/11/12 03:22:15;;;;;;;40.53;22.63;;;7.80;78.00;;;;;;5108768;28;20522;-82
2021/11/12 03:25:08;;;;;;;40.13;21.88;;;7.80;77.70;;;;;;5117175;28;20230;-81
2021/11/12 04:18:52;;;;;;;35.92;20.30;;;6.60;78.50;;;;;;5091456;28;20210;-79
2021/11/12 05:56:04;;;;;;;42.38;23.15;;;6.00;81.40;;;;;;5081472;28;20183;-80
2021/11/12 05:58:30;;;;;;;37.83;21.40;;;5.90;80.90;;;;;;5087411;28;20260;-80
2021/11/12 06:00:56;;;;;;;47.45;22.58;;;6.00;80.90;;;;;;5081524;28;20183;-80
2021/11/12 06:03:21;;;;;;;45.13;23.97;;;6.10;80.80;;;;;;5079359;28;20639;-80
2021/11/12 06:05:47;;;;;;;43.17;21.87;;;6.20;80.30;;;;;;5079490;28;20250;-80
2021/11/12 06:08:14;;;;;;;41.80;22.47;;;6.30;80.20;;;;;;5086578;28;20173;-80
2021/11/12 06:10:40;;;;;;;44.15;24.27;;;6.40;79.80;;;;;;5083180;28;20169;-80
2021/11/12 06:13:06;;;;;;;48.87;25.23;;;6.30;79.50;;;;;;5079683;28;20204;-80
2021/11/12 06:15:32;;;;;;;39.40;23.23;;;6.30;79.70;;;;;;5079630;28;20403;-80
2021/11/12 06:17:58;;;;;;;50.77;23.77;;;6.10;79.90;;;;;;5079250;28;20640;-79
2021/11/12 06:20:23;;;;;;;51.67;24.27;;;5.80;80.30;;;;;;5078898;28;20476;-80
2021/11/12 06:22:49;;;;;;;40.50;23.20;;;6.00;80.70;;;;;;5094545;28;20183;-80
2021/11/12 06:25:15;;;;;;;48.13;23.97;;;6.10;80.90;;;;;;5099357;28;20199;-80
2021/11/12 06:27:41;;;;;;;46.70;24.53;;;6.10;80.10;;;;;;5099986;28;20471;-80
2021/11/12 06:30:08;;;;;;;48.47;23.47;;;5.80;79.90;;;;;;5100055;28;20719;-80
2021/11/12 06:32:34;;;;;;;50.08;25.60;;;5.70;80.20;;;;;;5107364;28;20711;-81
2021/11/12 06:35:00;;;;;;;42.30;23.67;;;5.90;80.60;;;;;;5113328;28;20191;-80
2021/11/12 06:37:26;;;;;;;43.92;23.40;;;5.90;80.80;;;;;;5106051;28;20764;-80
2021/11/12 06:39:52;;;;;;;49.03;24.48;;;6.00;80.50;;;;;;5102399;28;20190;-80
2021/11/12 06:42:23;;;;;;;47.50;23.60;;;6.10;80.20;;;;;;5098856;28;20179;-82
2021/11/12 06:50:12;;;;;;;46.63;25.00;;;5.70;79.50;;;;;;5098789;28;20167;-82
2021/11/12 06:52:39;;;;;;;55.63;24.48;;;5.60;80.20;;;;;;5099093;28;20595;-82
2021/11/12 06:55:09;;;;;;;46.13;25.65;;;5.60;80.40;;;;;;5097446;28;20195;-83
2021/11/12 06:57:35;;;;;;;43.95;23.90;;;5.70;80.40;;;;;;5081981;28;20183;-82
2021/11/12 07:00:02;;;;;;;55.20;24.98;;;5.80;80.00;;;;;;5087871;28;20176;-83
2021/11/12 07:02:28;;;;;;;41.83;23.00;;;5.80;79.70;;;;;;5097827;28;20179;-81
2021/11/12 07:04:53;;;;;;;49.40;23.80;;;5.60;79.30;;;;;;5081161;28;20231;-80
2021/11/12 07:07:19;;;;;;;44.90;23.00;;;5.40;79.70;;;;;;5079917;28;20184;-80
2021/11/12 07:09:46;;;;;;;49.05;23.17;;;5.10;79.90;;;;;;5079579;28;20421;-80
2021/11/12 07:12:14;;;;;;;51.05;25.80;;;4.80;80.50;;;;;;5082043;28;20206;-80
2021/11/12 07:14:40;;;;;;;53.33;24.95;;;5.00;81.10;;;;;;5093921;28;20196;-80
2021/11/12 07:17:06;;;;;;;55.43;26.67;;;5.20;81.20;;;;;;5094927;28;20219;-80
2021/11/12 07:19:32;;;;;;;51.20;26.70;;;5.30;81.10;;;;;;5086764;28;20435;-80
2021/11/12 07:21:58;;;;;;;48.03;27.03;;;5.30;80.90;;;;;;5103175;28;20619;-80
2021/11/12 07:24:27;;;;;;;44.72;24.10;;;5.30;80.70;;;;;;5118139;28;20461;-80
2021/11/12 07:26:54;;;;;;;49.22;24.77;;;5.40;80.30;;;;;;5118881;28;20175;-80
2021/11/12 07:29:22;;;;;;;47.15;23.98;;;5.50;80.00;;;;;;5084445;28;20255;-80
2021/11/12 07:31:48;;;;;;;43.75;25.98;;;5.40;79.60;;;;;;5091473;28;20184;-80
2021/11/12 07:34:14;;;;;;;42.88;23.40;;;5.40;79.40;;;;;;5098132;28;20195;-80
2021/11/12 07:36:44;;;;;;;46.60;22.92;;;5.80;79.10;;;;;;5099573;28;20182;-80
2021/11/12 07:39:19;;;;;;;45.30;23.25;;;5.70;78.40;;;;;;5100110;28;20217;-80
2021/11/12 07:47:14;;;;;;;44.25;22.02;;;5.50;79.00;;;;;;5096410;28;20179;-80
2021/11/12 07:49:42;;;;;;;45.20;22.80;;;5.60;78.90;;;;;;5103768;28;20171;-80
2021/11/12 07:52:08;;;;;;;46.90;22.02;;;5.60;79.20;;;;;;5116069;28;20180;-80
2021/11/12 07:54:34;;;;;;;38.97;21.55;;;5.80;79.40;;;;;;5118105;28;20192;-80
2021/11/12 07:57:01;;;;;;;34.90;20.90;;;5.90;79.30;;;;;;5117584;28;20225;-79
2021/11/12 07:59:28;;;;;;;37.58;23.05;;;5.90;79.00;;;;;;5116165;28;20179;-80
2021/11/12 08:01:54;;;;;;;47.22;21.80;;;6.10;78.90;;;;;;5115212;28;20236;-80
2021/11/12 08:04:20;;;;;;;38.65;20.58;;;6.00;78.40;;;;;;5108261;28;20199;-81
2021/11/12 08:06:50;;;;;;;40.45;24.33;;;6.00;78.40;;;;;;5109869;28;20183;-80
2021/11/12 08:09:17;;;;;;;40.88;24.00;;;5.80;78.50;;;;;;5104131;28;20172;-80
2021/11/12 08:11:50;;;;;;;39.22;22.50;;;5.80;78.40;;;;;;5109220;28;20712;-80
2021/11/12 08:14:33;;;;;;;43.38;22.67;;;5.90;78.40;;;;;;5103859;28;20212;-81
2021/11/12 08:17:08;;;;;;;38.20;20.17;;;5.90;78.00;;;;;;5104544;28;20251;-80
2021/11/12 08:23:03;;;;;;;40.90;20.33;;;6.20;78.30;;;;;;5083414;28;20179;-80
2021/11/12 08:38:28;;;;;;;33.75;21.85;;;6.20;78.50;;;;;;5080070;28;20249;-80
2021/11/12 08:43:30;;;;;;;42.87;24.03;;;6.20;78.70;;;;;;5078137;28;20177;-79
2021/11/12 08:48:27;;;;;;;41.50;22.80;;;6.40;78.80;;;;;;5078946;28;20168;-79
2021/11/12 08:50:53;;;;;;;45.60;23.40;;;6.30;79.00;;;;;;5078415;28;20632;-80
2021/11/12 08:53:19;;;;;;;46.40;22.87;;;6.40;79.20;;;;;;5080848;28;20225;-79
2021/11/12 08:55:47;;;;;;;45.28;22.88;;;6.60;79.30;;;;;;5098943;28;20192;-80
2021/11/12 08:58:13;;;;;;;46.60;23.55;;;6.70;79.30;;;;;;5097211;28;20196;-80
2021/11/12 09:00:41;;;;;;;45.10;23.75;;;6.50;78.60;;;;;;5101124;28;20183;-80
2021/11/12 09:03:09;;;;;;;41.78;22.50;;;6.70;79.10;;;;;;5098021;28;20180;-80
2021/11/12 09:05:35;;;;;;;47.75;23.23;;;6.60;78.90;;;;;;5101093;28;20236;-80
2021/11/12 09:08:01;;;;;;;41.45;24.02;;;6.60;79.10;;;;;;5100097;28;20200;-80
2021/11/12 09:10:28;;;;;;;37.35;23.73;;;6.50;79.20;;;;;;5098377;28;20594;-79
2021/11/12 09:13:16;;;;;;;44.60;24.63;;;6.40;79.50;;;;;;5098770;28;20205;-80
2021/11/12 09:15:48;;;;;;;51.15;26.05;;;6.40;80.20;;;;;;5078393;28;20644;-80
2021/11/12 09:18:13;;;;;;;55.83;24.50;;;6.40;80.60;;;;;;5080492;28;20159;-80
2021/11/12 09:20:39;;;;;;;67.47;27.00;;;6.80;80.70;;;;;;5096449;28;20172;-79
2021/11/12 09:23:06;;;;;;;56.13;24.53;;;6.80;80.20;;;;;;5112684;28;20205;-80
2021/11/12 09:25:31;;;;;;;49.20;27.77;;;6.80;79.70;;;;;;5119193;28;20236;-80
2021/11/12 09:27:57;;;;;;;56.17;25.33;;;7.00;79.80;;;;;;5120497;28;20192;-80
2021/11/12 09:30:25;;;;;;;46.93;24.13;;;6.90;79.70;;;;;;5085239;28;20236;-80
2021/11/12 09:32:53;;;;;;;48.80;26.90;;;7.10;79.60;;;;;;5084840;28;20402;-80
2021/11/12 09:35:20;;;;;;;53.45;26.52;;;7.00;79.20;;;;;;5090662;28;20703;-81
2021/11/12 09:37:46;;;;;;;47.75;24.88;;;6.90;79.40;;;;;;5091298;28;20210;-81
2021/11/12 09:40:12;;;;;;;55.65;26.55;;;7.00;79.60;;;;;;5107222;28;20176;-83
2021/11/12 09:42:38;;;;;;;48.30;25.97;;;6.90;79.50;;;;;;5096829;28;20226;-84
2021/11/12 09:45:07;;;;;;;46.55;27.05;;;7.00;79.70;;;;;;5084752;28;20477;-83
2021/11/12 09:47:34;;;;;;;50.85;27.45;;;7.10;79.60;;;;;;5083653;28;20173;-83
2021/11/12 09:50:04;;;;;;;51.67;28.17;;;7.10;79.40;;;;;;5084219;28;20248;-83
2021/11/12 09:52:31;;;;;;;50.75;25.48;;;7.20;79.20;;;;;;5085801;28;20161;-83
2021/11/12 09:54:57;;;;;;;41.63;23.17;;;7.30;79.30;;;;;;5082413;28;20224;-83
2021/11/12 09:57:23;;;;;;;49.45;25.88;;;7.50;79.10;;;;;;5086295;28;20263;-83
2021/11/12 09:59:55;;;;;;;54.40;25.40;;;7.70;78.60;;;;;;5100356;28;20782;-83
2021/11/12 10:02:21;;;;;;;44.08;22.05;;;7.60;77.70;;;;;;5103827;28;20255;-83
2021/11/12 10:04:47;;;;;;;47.33;23.58;;;7.50;77.50;;;;;;5101440;28;20244;-83
2021/11/12 10:07:16;;;;;;;52.70;24.98;;;7.60;77.40;;;;;;5082447;28;20180;-83
2021/11/12 10:09:48;;;;;;;47.72;24.50;;;7.70;77.30;;;;;;5099391;28;20203;-83
2021/11/12 10:12:14;;;;;;;44.58;22.50;;;8.10;77.30;;;;;;5100083;28;20176;-84
2021/11/12 10:14:51;;;;;;;47.13;23.03;;;8.40;76.40;;;;;;5098122;28;20210;-84
2021/11/12 10:17:20;;;;;;;42.90;22.73;;;8.60;75.90;;;;;;5114101;28;20413;-84
2021/11/12 10:19:53;;;;;;;42.83;22.52;;;8.90;75.20;;;;;;5113056;28;20190;-84
2021/11/12 10:22:24;;;;;;;44.55;22.05;;;9.10;74.80;;;;;;5124654;28;20195;-84
2021/11/12 10:24:50;;;;;;;39.13;21.27;;;9.10;73.80;;;;;;5133994;28;20204;-83
2021/11/12 10:27:18;;;;;;;40.67;22.98;;;9.00;73.10;;;;;;5133643;28;20213;-83
2021/11/12 10:29:51;;;;;;;45.28;22.20;;;9.00;72.90;;;;;;5126217;28;20175;-84
2021/11/12 10:32:23;;;;;;;48.25;24.02;;;8.90;73.50;;;;;;5108738;28;20214;-85
2021/11/12 10:34:52;;;;;;;36.42;19.83;;;8.80;73.70;;;;;;5099483;28;20305;-83
2021/11/12 10:37:23;;;;;;;46.63;25.02;;;8.70;73.90;;;;;;5085906;28;20180;-85
2021/11/12 10:40:02;;;;;;;38.90;21.20;;;8.70;74.50;;;;;;5075919;28;20200;-85
2021/11/12 10:42:31;;;;;;;38.45;20.67;;;8.80;74.60;;;;;;5076495;28;20212;-85
2021/11/12 10:45:10;;;;;;;42.58;20.85;;;8.80;74.30;;;;;;5077453;28;20212;-82
2021/11/12 10:48:02;;;;;;;35.47;20.77;;;9.00;74.40;;;;;;5059743;28;20555;-83
2021/11/12 10:50:33;;;;;;;43.15;22.55;;;9.40;74.10;;;;;;5077487;28;20257;-83
2021/11/12 10:53:14;;;;;;;44.03;22.50;;;9.80;73.30;;;;;;5076570;28;20195;-83
2021/11/12 10:55:45;;;;;;;36.30;19.63;;;9.80;72.60;;;;;;5078142;28;20186;-82
2021/11/12 10:58:13;;;;;;;35.78;18.05;;;9.90;71.90;;;;;;5080762;28;20164;-82
2021/11/12 11:00:47;;;;;;;31.85;17.85;;;9.60;71.40;;;;;;5095603;28;20188;-82
2021/11/12 11:03:20;;;;;;;37.13;18.38;;;9.60;72.00;;;;;;5101885;28;20175;-82
2021/11/12 11:05:47;;;;;;;29.90;17.23;;;10.00;72.00;;;;;;5100695;28;20204;-82
2021/11/12 11:08:21;;;;;;;39.25;20.75;;;10.40;71.10;;;;;;5101947;28;20164;-82
2021/11/12 11:10:51;;;;;;;29.95;16.35;;;10.50;70.30;;;;;;5098213;28;20180;-83
2021/11/12 11:13:20;;;;;;;30.40;17.70;;;10.60;69.80;;;;;;5095129;28;20195;-83
2021/11/12 11:15:52;;;;;;;35.17;17.70;;;10.60;69.10;;;;;;5075458;28;20210;-82
2021/11/12 11:18:26;;;;;;;28.92;16.58;;;10.30;69.00;;;;;;5091767;28;20190;-83
2021/11/12 11:20:56;;;;;;;27.52;15.30;;;10.40;69.60;;;;;;5098736;28;20181;-84
2021/11/12 11:23:22;;;;;;;27.98;16.90;;;10.50;69.00;;;;;;5118727;28;20243;-84
2021/11/12 11:25:55;;;;;;;33.88;16.77;;;10.40;69.00;;;;;;5105237;28;20218;-84
2021/11/12 11:28:21;;;;;;;34.22;16.77;;;10.40;69.40;;;;;;5125233;28;20171;-84
2021/11/12 11:30:47;;;;;;;30.27;15.57;;;10.30;69.40;;;;;;5123215;28;20182;-84
2021/11/12 11:33:15;;;;;;;31.73;14.80;;;10.50;69.60;;;;;;5122301;28;20622;-84
2021/11/12 11:35:42;;;;;;;29.77;15.27;;;10.60;69.10;;;;;;5103084;28;20491;-83
2021/11/12 11:38:09;;;;;;;27.75;14.40;;;10.60;68.70;;;;;;5101995;28;20188;-83
2021/11/12 11:40:40;;;;;;;27.77;16.05;;;10.60;68.80;;;;;;5105017;28;20176;-83
2021/11/12 11:43:08;;;;;;;32.05;15.30;;;10.90;68.60;;;;;;5083107;28;20181;-84
2021/11/12 11:45:34;;;;;;;24.77;14.95;;;11.20;67.80;;;;;;5083514;28;20282;-83
2021/11/12 11:48:01;;;;;;;25.08;14.93;;;11.40;67.00;;;;;;5082478;28;20229;-83
2021/11/12 11:50:30;;;;;;;25.45;14.32;;;11.60;66.20;;;;;;5096977;28;20180;-83
2021/11/12 11:53:22;;;;;;;24.52;14.07;;;11.90;66.20;;;;;;5101837;28;20651;-84
2021/11/12 11:55:48;;;;;;;33.10;15.20;;;12.10;65.50;;;;;;5102661;28;20183;-84
2021/11/12 11:58:47;;;;;;;26.55;14.48;;;12.20;65.10;;;;;;5101850;28;20220;-84
2021/11/12 12:01:18;;;;;;;27.92;16.35;;;12.10;63.60;;;;;;5033992;28;20191;-83
2021/11/12 12:04:10;;;;;;;23.85;13.52;;;12.00;64.10;;;;;;5099783;28;20210;-83
2021/11/12 12:06:43;;;;;;;24.05;13.75;;;12.20;63.70;;;;;;5082561;28;20222;-83
2021/11/12 12:09:12;;;;;;;24.08;14.23;;;12.40;63.30;;;;;;5081794;28;20169;-83
2021/11/12 12:11:52;;;;;;;27.65;15.15;;;12.60;63.00;;;;;;5091669;28;20267;-83
2021/11/12 12:14:19;;;;;;;30.98;14.38;;;12.70;62.30;;;;;;5091449;28;20208;-83
2021/11/12 12:17:09;;;;;;;22.27;13.93;;;12.70;61.90;;;;;;5085078;28;20169;-83
2021/11/12 12:20:04;;;;;;;30.38;15.20;;;12.90;62.20;;;;;;5084796;28;20172;-83
2021/11/12 13:25:41;;;;;;;19.83;11.80;;;12.20;60.90;;;;;;5121233;28;20191;-84
2021/11/12 13:28:28;;;;;;;23.98;13.05;;;12.10;60.60;;;;;;5118852;28;20179;-84
2021/11/12 13:30:53;;;;;;;24.85;13.00;;;11.80;60.40;;;;;;5120346;28;20654;-82
2021/11/12 13:33:27;;;;;;;28.17;13.40;;;11.80;60.60;;;;;;5117504;28;20171;-82
2021/11/12 13:35:52;;;;;;;21.08;13.02;;;11.80;60.80;;;;;;5101342;28;20177;-83
2021/11/12 13:38:18;;;;;;;20.40;12.90;;;11.80;60.50;;;;;;5077605;28;20523;-83
2021/11/12 13:40:44;;;;;;;19.67;11.83;;;11.60;60.20;;;;;;5077393;28;20419;-83
2021/11/12 13:43:10;;;;;;;20.67;12.03;;;11.80;60.20;;;;;;5077468;28;20592;-83
2021/11/12 13:45:36;;;;;;;23.40;12.20;;;11.90;60.30;;;;;;5077804;28;20872;-83
2021/11/12 13:48:11;;;;;;;19.42;12.25;;;11.90;60.10;;;;;;5077157;28;20179;-83
2021/11/12 13:50:50;;;;;;;29.63;13.60;;;11.80;60.00;;;;;;5077850;28;20275;-83
2021/11/12 13:53:16;;;;;;;24.52;13.00;;;12.00;60.40;;;;;;5088239;28;20176;-82
2021/11/12 13:55:42;;;;;;;31.45;13.50;;;11.90;60.40;;;;;;5095871;28;20206;-82
2021/11/12 13:58:08;;;;;;;27.38;13.82;;;11.90;60.30;;;;;;5095514;28;20168;-82
2021/11/12 14:00:36;;;;;;;27.40;12.93;;;12.20;59.90;;;;;;5097636;28;20187;-82
2021/11/12 14:03:07;;;;;;;25.15;13.15;;;12.00;58.70;;;;;;5096480;28;20179;-83
2021/11/12 14:05:38;;;;;;;25.70;13.05;;;11.90;59.00;;;;;;5096221;28;20204;-83
2021/11/12 14:08:07;;;;;;;24.58;12.68;;;11.90;59.30;;;;;;5078987;28;20187;-83
2021/11/12 14:10:39;;;;;;;24.30;12.77;;;12.10;59.50;;;;;;5095760;28;20635;-83
2021/11/12 14:13:06;;;;;;;21.60;11.30;;;12.00;59.00;;;;;;5098088;28;20675;-83
2021/11/12 14:15:40;;;;;;;20.85;11.55;;;12.10;60.70;;;;;;5124011;28;20195;-83
2021/11/12 14:32:58;;;;;;;20.92;11.40;;;12.10;59.10;;;;;;5080509;28;20195;-83
2021/11/12 14:35:54;;;;;;;20.10;11.55;;;12.20;58.90;;;;;;5078213;28;20204;-83
2021/11/12 14:38:32;;;;;;;21.75;11.25;;;12.00;58.60;;;;;;5078755;28;20245;-81
2021/11/12 14:46:41;;;;;;;15.63;9.23;;;12.10;58.90;;;;;;5095053;28;20195;-81
2021/11/12 14:52:04;;;;;;;18.67;9.38;;;12.10;58.40;;;;;;5097493;28;20657;-81
2021/11/12 14:54:40;;;;;;;14.80;9.30;;;12.20;59.20;;;;;;5097594;28;20208;-80
2021/11/12 14:59:51;;;;;;;20.73;9.68;;;12.30;59.90;;;;;;5096733;28;20164;-81
2021/11/12 15:02:17;;;;;;;13.80;8.60;;;12.40;58.50;;;;;;5097819;28;20307;-82
2021/11/12 15:04:44;;;;;;;16.58;8.82;;;12.40;58.00;;;;;;5097739;28;20214;-82
2021/11/12 15:07:10;;;;;;;15.50;8.93;;;12.50;58.20;;;;;;5096514;28;20172;-82
2021/11/12 15:09:37;;;;;;;11.37;8.33;;;12.50;57.10;;;;;;5097300;28;20179;-84
2021/11/12 15:12:06;;;;;;;12.95;8.27;;;12.40;57.60;;;;;;5096227;28;20417;-82
2021/11/12 15:14:45;;;;;;;12.80;8.18;;;12.40;58.20;;;;;;5095226;28;20306;-82
2021/11/12 15:17:11;;;;;;;11.38;8.20;;;12.40;57.20;;;;;;5096460;28;20171;-83
2021/11/12 15:19:41;;;;;;;15.80;8.38;;;12.60;58.00;;;;;;5096390;28;20194;-82
2021/11/12 15:23:03;;;;;;;10.70;7.97;;;12.80;56.80;;;;;;5106705;28;20175;-83
2021/11/12 15:25:21;;;;;;;16.42;8.60;;;12.90;56.30;;;;;;5106121;28;20215;-82
2021/11/12 15:30:40;;;;;;;13.05;9.05;;;12.60;57.10;;;;;;5113015;28;20268;-82
2021/11/12 15:33:08;;;;;;;13.95;8.48;;;12.40;57.20;;;;;;5096039;28;20176;-82
2021/11/12 15:35:35;;;;;;;13.18;7.95;;;12.40;57.10;;;;;;5099325;28;20172;-80
2021/11/12 15:38:09;;;;;;;16.83;8.65;;;12.40;57.60;;;;;;5098248;28;20186;-80
2021/11/12 15:40:41;;;;;;;12.57;8.63;;;12.40;57.30;;;;;;5101598;28;20209;-82
2021/11/12 15:43:28;;;;;;;18.67;7.72;;;12.50;57.90;;;;;;5098969;28;20176;-83
2021/11/12 15:46:09;;;;;;;17.67;9.55;;;12.50;56.80;;;;;;5101257;28;20199;-82
2021/11/12 15:48:38;;;;;;;13.90;7.40;;;12.60;56.50;;;;;;5098115;28;20519;-82
2021/11/12 16:21:09;;;;;;;19.10;10.48;;;11.90;56.40;;;;;;5044765;28;20174;-82
2021/11/12 16:23:41;;;;;;;17.17;10.77;;;12.00;57.70;;;;;;5120859;28;20231;-80
2021/11/12 16:26:11;;;;;;;14.15;10.07;;;11.80;57.90;;;;;;5131523;28;20210;-81
2021/11/12 16:29:40;;;;;;;15.90;10.23;;;11.80;57.30;;;;;;5135446;28;20179;-81
2021/11/12 16:31:36;;;;;;;23.02;11.38;;;11.80;57.70;;;;;;5114655;28;20282;-81
2021/11/12 16:37:00;;;;;;;29.33;11.50;;;11.80;57.70;;;;;;5118166;27;20175;-81
2021/11/12 16:45:02;;;;;;;15.67;10.33;;;11.60;58.60;;;;;;5078610;28;20775;-80
2021/11/12 16:53:00;;;;;;;19.60;11.30;;;11.60;58.90;;;;;;5059035;28;20185;-80
2021/11/12 16:58:30;;;;;;;19.83;12.75;;;11.40;59.70;;;;;;5076944;28;20222;-80
2021/11/12 17:06:45;;;;;;;24.92;12.50;;;11.50;63.20;;;;;;5076900;28;20203;-79
2021/11/12 21:46:12;;;;;;;30.70;15.55;;;11.30;77.20;;;;;;5085082;28;20196;-82
2021/11/12 21:48:41;;;;;;;28.70;17.83;;;11.30;78.20;;;;;;5064509;28;20204;-82
2021/11/12 21:51:15;;;;;;;30.65;16.02;;;11.30;79.20;;;;;;5085730;28;20551;-82
2021/11/12 21:53:41;;;;;;;33.15;18.20;;;11.10;79.60;;;;;;5088586;28;20191;-82
2021/11/12 21:56:08;;;;;;;32.90;16.53;;;11.20;80.20;;;;;;5098842;28;20193;-82
2021/11/12 21:58:35;;;;;;;28.33;16.85;;;11.00;81.00;;;;;;5099933;28;20179;-83
2021/11/12 22:01:04;;;;;;;32.60;18.50;;;10.80;81.60;;;;;;5098672;28;20321;-81
2021/11/12 22:03:30;;;;;;;25.75;16.58;;;10.80;82.40;;;;;;5097865;28;20214;-82
2021/11/12 22:05:57;;;;;;;29.05;17.98;;;11.00;83.00;;;;;;5089732;28;20208;-82
2021/11/12 22:08:24;;;;;;;36.05;18.27;;;10.70;83.10;;;;;;5095137;28;20692;-82
2021/11/12 22:10:50;;;;;;;36.25;17.80;;;10.80;83.30;;;;;;5077867;28;20609;-82
2021/11/12 22:13:16;;;;;;;31.75;18.02;;;10.70;83.20;;;;;;5078171;28;20192;-82
2021/11/12 22:15:43;;;;;;;34.42;17.15;;;10.70;82.90;;;;;;5097390;28;20183;-81
2021/11/12 22:18:10;;;;;;;30.83;17.00;;;10.60;82.50;;;;;;5098358;28;20168;-82
2021/11/12 22:20:37;;;;;;;30.60;16.02;;;10.60;82.70;;;;;;5096688;28;20658;-81
2021/11/12 22:23:03;;;;;;;33.78;17.38;;;10.70;82.80;;;;;;5091081;28;20275;-83
2021/11/12 22:25:29;;;;;;;34.10;17.65;;;10.70;82.40;;;;;;5075493;28;20212;-82
2021/11/12 22:27:55;;;;;;;28.40;16.50;;;10.80;82.20;;;;;;5059833;28;20199;-82
2021/11/12 22:30:21;;;;;;;28.57;16.00;;;10.70;81.80;;;;;;5076253;28;20177;-81
2021/11/12 22:32:47;;;;;;;32.53;16.90;;;10.90;82.10;;;;;;5076461;28;20411;-82
2021/11/12 22:35:13;;;;;;;32.75;15.77;;;10.80;81.60;;;;;;5074501;28;20430;-82
2021/11/12 22:37:40;;;;;;;35.20;16.65;;;10.80;81.90;;;;;;5076447;28;20542;-81
2021/11/12 22:40:07;;;;;;;23.90;16.20;;;11.00;81.80;;;;;;5079689;28;20184;-81
2021/11/12 22:42:33;;;;;;;26.80;15.70;;;10.90;81.40;;;;;;5074491;28;20624;-82
2021/11/12 22:44:59;;;;;;;28.73;14.10;;;11.00;81.50;;;;;;5073258;28;20287;-82
2021/11/12 22:47:25;;;;;;;31.58;16.20;;;11.10;81.40;;;;;;5074065;28;20427;-81
2021/11/12 22:49:52;;;;;;;26.43;15.77;;;11.20;81.30;;;;;;5073556;28;20180;-81
2021/11/12 22:52:18;;;;;;;25.02;15.40;;;11.20;81.20;;;;;;5073722;28;20419;-81
2021/11/12 22:54:47;;;;;;;25.65;16.05;;;11.40;81.20;;;;;;5075211;28;20222;-82
2021/11/12 22:57:15;;;;;;;26.92;15.63;;;11.40;80.90;;;;;;5073907;28;20173;-82
2021/11/12 22:59:41;;;;;;;34.22;16.73;;;11.40;80.80;;;;;;5073432;28;20187;-82
2021/11/12 23:02:07;;;;;;;26.45;14.63;;;11.40;80.70;;;;;;5089260;28;20171;-82
2021/11/12 23:04:33;;;;;;;24.90;13.60;;;11.40;80.80;;;;;;5093449;28;20582;-82
2021/11/12 23:06:59;;;;;;;24.40;13.90;;;11.30;81.00;;;;;;5093446;28;20329;-81
2021/11/12 23:09:25;;;;;;;24.83;13.40;;;11.50;81.40;;;;;;5090986;28;20920;-82
2021/11/12 23:11:50;;;;;;;24.87;15.50;;;11.40;81.30;;;;;;5093349;28;20506;-81
2021/11/12 23:14:16;;;;;;;25.77;13.47;;;11.40;81.80;;;;;;5085909;28;20482;-81
2021/11/12 23:16:42;;;;;;;31.53;14.63;;;11.50;82.30;;;;;;5081216;28;20176;-81
2021/11/12 23:19:08;;;;;;;28.07;12.60;;;11.50;82.30;;;;;;5085135;28;20415;-82
2021/11/12 23:21:34;;;;;;;23.20;13.07;;;11.40;82.20;;;;;;5082939;28;20184;-82